Time,TemperatureF,DewpointF,PressureIn,WindDirection,WindDirectionDegrees,WindSpeedMPH,WindSpeedGustMPH,Humidity,HourlyPrecipIn,Conditions,Clouds,dailyrainin,SoftwareType,DateUTC
2013-12-10 00:00:00,28.1,21.5,30.44,NW,317,10.0,12.0,76,0.00,,,0.02,Wunderground v.1.15,2013-12-10 06:00:00,
2013-12-10 00:10:00,27.8,21.2,30.45,NNW,327,10.0,11.0,76,0.00,,,0.00,Wunderground v.1.15,2013-12-10 06:10:00,
2013-12-10 00:15:00,27.7,21.4,30.45,NNW,327,11.0,13.0,77,0.00,,,0.00,Wunderground v.1.15,2013-12-10 06:15:00,
2013-12-10 00:20:00,27.5,21.2,30.45,NW,325,10.0,17.0,77,0.00,,,0.00,Wunderground v.1.15,2013-12-10 06:20:00,
2013-12-10 00:25:00,27.5,21.5,30.45,NW,322,10.0,17.0,78,0.00,,,0.00,Wunderground v.1.15,2013-12-10 06:25:00,
2013-12-10 00:30:00,27.3,21.3,30.45,NW,323,10.0,10.0,78,0.00,,,0.00,Wunderground v.1.15,2013-12-10 06:30:00,
2013-12-10 00:35:00,27.2,21.2,30.46,NNW,343,11.0,11.0,78,0.00,,,0.00,Wunderground v.1.15,2013-12-10 06:35:00,
2013-12-10 00:45:00,26.9,21.0,30.45,NNW,327,11.0,11.0,78,0.00,,,0.00,Wunderground v.1.15,2013-12-10 06:45:00,
2013-12-10 00:50:00,26.8,20.9,30.46,NW,322,11.0,11.0,78,0.00,,,0.00,Wunderground v.1.15,2013-12-10 06:50:00,
2013-12-10 00:55:00,26.6,20.7,30.46,NW,326,12.0,12.0,78,0.00,,,0.00,Wunderground v.1.15,2013-12-10 06:55:00,
2013-12-10 01:00:00,26.5,20.6,30.45,NW,320,11.0,11.0,78,0.00,,,0.00,Wunderground v.1.15,2013-12-10 07:00:00,
2013-12-10 01:05:00,26.4,20.5,30.45,NW,321,11.0,12.0,78,0.00,,,0.00,Wunderground v.1.15,2013-12-10 07:05:00,
2013-12-10 01:10:00,26.3,20.4,30.45,NW,309,10.0,15.0,78,0.00,,,0.00,Wunderground v.1.15,2013-12-10 07:10:00,
2013-12-10 01:15:00,26.2,20.3,30.46,NW,309,10.0,15.0,78,0.00,,,0.00,Wunderground v.1.15,2013-12-10 07:15:00,
2013-12-10 01:25:00,25.9,20.0,30.46,NW,318,10.0,10.0,78,0.00,,,0.00,Wunderground v.1.15,2013-12-10 07:25:00,
2013-12-10 01:30:00,25.8,20.2,30.46,NW,325,10.0,10.0,79,0.00,,,0.00,Wunderground v.1.15,2013-12-10 07:30:00,
2013-12-10 01:35:00,25.6,20.0,30.46,NW,324,10.0,17.0,79,0.00,,,0.00,Wunderground v.1.15,2013-12-10 07:35:00,
2013-12-10 01:40:00,25.5,19.9,30.46,NNW,333,11.0,11.0,79,0.00,,,0.00,Wunderground v.1.15,2013-12-10 07:40:00,
2013-12-10 01:45:00,25.4,19.8,30.45,NW,315,12.0,13.0,79,0.00,,,0.00,Wunderground v.1.15,2013-12-10 07:45:00,
2013-12-10 01:55:00,25.3,19.7,30.47,NW,322,14.0,17.0,79,0.00,,,0.00,Wunderground v.1.15,2013-12-10 07:55:00,
2013-12-10 02:00:00,25.2,19.3,30.47,NW,318,13.0,13.0,78,0.00,,,0.00,Wunderground v.1.15,2013-12-10 08:00:00,
2013-12-10 02:10:00,25.1,19.5,30.47,NNW,327,10.0,11.0,79,0.00,,,0.00,Wunderground v.1.15,2013-12-10 08:10:00,
2013-12-10 02:15:00,24.9,19.3,30.47,NW,324,10.0,11.0,79,0.00,,,0.00,Wunderground v.1.15,2013-12-10 08:15:00,
2013-12-10 02:20:00,24.8,19.2,30.47,NNW,333,10.0,10.0,79,0.00,,,0.00,Wunderground v.1.15,2013-12-10 08:20:00,
2013-12-10 02:25:00,24.7,19.4,30.47,NW,321,9.0,10.0,80,0.00,,,0.00,Wunderground v.1.15,2013-12-10 08:25:00,
2013-12-10 02:30:00,24.6,19.3,30.47,NNW,331,10.0,10.0,80,0.00,,,0.00,Wunderground v.1.15,2013-12-10 08:30:00,
2013-12-10 02:40:00,24.4,19.1,30.47,NNW,334,10.0,10.0,80,0.00,,,0.00,Wunderground v.1.15,2013-12-10 08:40:00,
2013-12-10 02:45:00,24.4,19.1,30.47,NNW,335,11.0,14.0,80,0.00,,,0.00,Wunderground v.1.15,2013-12-10 08:45:00,
2013-12-10 02:50:00,24.3,19.0,30.47,NNW,335,11.0,12.0,80,0.00,,,0.00,Wunderground v.1.15,2013-12-10 08:50:00,
2013-12-10 02:55:00,24.2,18.9,30.47,NNW,332,10.0,12.0,80,0.00,,,0.00,Wunderground v.1.15,2013-12-10 08:55:00,
2013-12-10 03:00:00,24.2,18.9,30.47,NNW,327,10.0,10.0,80,0.00,,,0.00,Wunderground v.1.15,2013-12-10 09:00:00,
2013-12-10 03:10:00,24.0,18.7,30.47,NNW,331,10.0,11.0,80,0.00,,,0.00,Wunderground v.1.15,2013-12-10 09:10:00,
2013-12-10 03:20:00,23.8,18.2,30.47,NNW,336,10.0,10.0,79,0.00,,,0.00,Wunderground v.1.15,2013-12-10 09:20:00,
2013-12-10 03:25:00,23.8,18.2,30.48,NNW,335,9.0,10.0,79,0.00,,,0.00,Wunderground v.1.15,2013-12-10 09:25:00,
2013-12-10 03:30:00,23.6,18.0,30.48,NNW,333,8.0,10.0,79,0.00,,,0.00,Wunderground v.1.15,2013-12-10 09:30:00,
2013-12-10 03:35:00,23.6,18.3,30.48,NNW,335,8.0,10.0,80,0.00,,,0.00,Wunderground v.1.15,2013-12-10 09:35:00,
2013-12-10 03:40:00,23.4,18.1,30.47,NNW,334,7.0,8.0,80,0.00,,,0.00,Wunderground v.1.15,2013-12-10 09:40:00,
2013-12-10 03:50:00,23.2,17.9,30.47,NNW,331,6.0,6.0,80,0.00,,,0.00,Wunderground v.1.15,2013-12-10 09:50:00,
2013-12-10 03:55:00,23.1,17.8,30.48,NNW,331,5.0,6.0,80,0.00,,,0.00,Wunderground v.1.15,2013-12-10 09:55:00,
2013-12-10 04:00:00,22.9,17.9,30.48,NNW,331,5.0,5.0,81,0.00,,,0.00,Wunderground v.1.15,2013-12-10 10:00:00,
2013-12-10 04:10:00,22.6,17.6,30.47,NNW,330,6.0,6.0,81,0.00,,,0.00,Wunderground v.1.15,2013-12-10 10:10:00,
2013-12-10 04:15:00,22.5,17.5,30.47,NNW,330,6.0,6.0,81,0.00,,,0.00,Wunderground v.1.15,2013-12-10 10:15:00,
2013-12-10 04:20:00,22.4,17.7,30.47,NNW,329,5.0,8.0,82,0.00,,,0.00,Wunderground v.1.15,2013-12-10 10:20:00,
2013-12-10 04:25:00,22.3,17.6,30.47,NNW,327,6.0,8.0,82,0.00,,,0.00,Wunderground v.1.15,2013-12-10 10:25:00,
2013-12-10 04:35:00,22.1,17.4,30.47,NNW,330,6.0,8.0,82,0.00,,,0.00,Wunderground v.1.15,2013-12-10 10:35:00,
2013-12-10 04:40:00,22.1,17.4,30.47,NNW,330,6.0,6.0,82,0.00,,,0.00,Wunderground v.1.15,2013-12-10 10:40:00,
2013-12-10 04:45:00,22.0,17.3,30.47,NNW,329,6.0,7.0,82,0.00,,,0.00,Wunderground v.1.15,2013-12-10 10:45:00,
2013-12-10 04:50:00,21.9,17.5,30.47,NNW,331,6.0,7.0,83,0.00,,,0.00,Wunderground v.1.15,2013-12-10 10:50:00,
2013-12-10 04:55:00,21.8,17.4,30.47,NNW,333,6.0,7.0,83,0.00,,,0.00,Wunderground v.1.15,2013-12-10 10:55:00,
2013-12-10 05:00:00,21.8,17.4,30.47,NNW,333,5.0,5.0,83,0.00,,,0.00,Wunderground v.1.15,2013-12-10 11:00:00,
2013-12-10 05:10:00,21.6,17.2,30.47,NNW,332,5.0,6.0,83,0.00,,,0.00,Wunderground v.1.15,2013-12-10 11:10:00,
2013-12-10 05:20:00,21.3,16.9,30.46,NNW,333,6.0,6.0,83,0.00,,,0.00,Wunderground v.1.15,2013-12-10 11:20:00,
2013-12-10 05:25:00,21.3,16.7,30.46,NNW,331,6.0,6.0,82,0.00,,,0.00,Wunderground v.1.15,2013-12-10 11:25:00,
2013-12-10 05:30:00,21.2,16.6,30.46,NNW,331,6.0,7.0,82,0.00,,,0.00,Wunderground v.1.15,2013-12-10 11:30:00,
2013-12-10 05:35:00,21.1,16.5,30.46,NNW,331,6.0,7.0,82,0.00,,,0.00,Wunderground v.1.15,2013-12-10 11:35:00,
2013-12-10 05:45:00,21.0,16.1,30.47,NNW,338,6.0,6.0,81,0.00,,,0.00,Wunderground v.1.15,2013-12-10 11:45:00,
2013-12-10 05:50:00,21.0,16.1,30.47,NNW,338,5.0,5.0,81,0.00,,,0.00,Wunderground v.1.15,2013-12-10 11:50:00,
2013-12-10 05:55:00,20.9,16.0,30.48,NNW,336,5.0,5.0,81,0.00,,,0.00,Wunderground v.1.15,2013-12-10 11:55:00,
2013-12-10 06:00:00,20.8,15.9,30.48,NNW,336,5.0,5.0,81,0.00,,,0.00,Wunderground v.1.15,2013-12-10 12:00:00,
2013-12-10 06:10:00,20.7,16.1,30.48,NNW,336,5.0,9.0,82,0.00,,,0.00,Wunderground v.1.15,2013-12-10 12:10:00,
2013-12-10 06:15:00,20.6,16.0,30.48,NNW,336,5.0,9.0,82,0.00,,,0.00,Wunderground v.1.15,2013-12-10 12:15:00,
2013-12-10 06:20:00,20.6,16.0,30.48,NNW,336,4.0,4.0,82,0.00,,,0.00,Wunderground v.1.15,2013-12-10 12:20:00,
2013-12-10 06:25:00,20.5,15.9,30.49,NNW,336,4.0,5.0,82,0.00,,,0.00,Wunderground v.1.15,2013-12-10 12:25:00,
2013-12-10 06:35:00,20.3,15.7,30.49,NNW,336,5.0,7.0,82,0.00,,,0.00,Wunderground v.1.15,2013-12-10 12:35:00,
2013-12-10 06:40:00,20.2,15.9,30.50,NNW,336,4.0,4.0,83,0.00,,,0.00,Wunderground v.1.15,2013-12-10 12:40:00,
2013-12-10 06:45:00,20.1,16.0,30.50,NNW,336,4.0,4.0,84,0.00,,,0.00,Wunderground v.1.15,2013-12-10 12:45:00,
2013-12-10 06:50:00,20.1,16.0,30.50,NNW,336,5.0,6.0,84,0.00,,,0.00,Wunderground v.1.15,2013-12-10 12:50:00,
2013-12-10 07:00:00,19.9,15.8,30.50,NNW,336,3.0,4.0,84,0.00,,,0.00,Wunderground v.1.15,2013-12-10 13:00:00,
2013-12-10 07:10:00,19.8,16.0,30.50,NNW,335,5.0,7.0,85,0.00,,,0.00,Wunderground v.1.15,2013-12-10 13:10:00,
2013-12-10 07:15:00,19.8,16.0,30.50,NNW,333,6.0,7.0,85,0.00,,,0.00,Wunderground v.1.15,2013-12-10 13:15:00,
2013-12-10 07:20:00,19.7,15.9,30.50,NNW,332,6.0,8.0,85,0.00,,,0.00,Wunderground v.1.15,2013-12-10 13:20:00,
2013-12-10 07:25:00,19.7,16.2,30.50,NNW,332,6.0,8.0,86,0.00,,,0.00,Wunderground v.1.15,2013-12-10 13:25:00,
2013-12-10 07:30:00,19.7,15.9,30.50,NNW,332,6.0,6.0,85,0.00,,,0.00,Wunderground v.1.15,2013-12-10 13:30:00,
2013-12-10 07:35:00,19.7,16.2,30.50,NNW,333,6.0,6.0,86,0.00,,,0.00,Wunderground v.1.15,2013-12-10 13:35:00,
2013-12-10 07:45:00,19.8,16.3,30.50,NNW,333,6.0,6.0,86,0.00,,,0.00,Wunderground v.1.15,2013-12-10 13:45:00,
2013-12-10 07:50:00,20.0,16.5,30.50,NNW,333,5.0,7.0,86,0.00,,,0.00,Wunderground v.1.15,2013-12-10 13:50:00,
2013-12-10 07:55:00,20.6,16.8,30.50,NNW,336,5.0,7.0,85,0.00,,,0.00,Wunderground v.1.15,2013-12-10 13:55:00,
2013-12-10 08:00:00,21.1,17.0,30.50,NNW,336,5.0,6.0,84,0.00,,,0.00,Wunderground v.1.15,2013-12-10 14:00:00,
2013-12-10 08:10:00,21.6,17.0,30.51,NNW,336,5.0,5.0,82,0.00,,,0.00,Wunderground v.1.15,2013-12-10 14:10:00,
2013-12-10 08:15:00,21.9,17.0,30.52,NNW,337,6.0,6.0,81,0.00,,,0.00,Wunderground v.1.15,2013-12-10 14:15:00,
2013-12-10 08:20:00,22.1,16.9,30.52,NNW,337,5.0,5.0,80,0.00,,,0.00,Wunderground v.1.15,2013-12-10 14:20:00,
2013-12-10 08:30:00,22.9,17.1,30.52,NNW,336,3.0,4.0,78,0.00,,,0.00,Wunderground v.1.15,2013-12-10 14:30:00,
2013-12-10 08:35:00,23.2,16.8,30.53,NNW,344,4.0,6.0,76,0.00,,,0.00,Wunderground v.1.15,2013-12-10 14:35:00,
2013-12-10 08:40:00,23.5,16.7,30.53,NNW,338,4.0,8.0,75,0.00,,,0.00,Wunderground v.1.15,2013-12-10 14:40:00,
2013-12-10 08:45:00,23.7,16.6,30.53,North,5,5.0,8.0,74,0.00,,,0.00,Wunderground v.1.15,2013-12-10 14:45:00,
2013-12-10 08:55:00,24.1,16.4,30.54,NNE,20,5.0,5.0,72,0.00,,,0.00,Wunderground v.1.15,2013-12-10 14:55:00,
2013-12-10 09:00:00,24.4,16.3,30.55,NNE,13,5.0,5.0,71,0.00,,,0.00,Wunderground v.1.15,2013-12-10 15:00:00,
2013-12-10 09:10:00,24.7,16.3,30.55,NNW,342,6.0,11.0,70,0.00,,,0.00,Wunderground v.1.15,2013-12-10 15:10:00,
2013-12-10 09:15:00,24.8,16.7,30.55,North,360,7.0,11.0,71,0.00,,,0.00,Wunderground v.1.15,2013-12-10 15:15:00,
2013-12-10 09:20:00,25.0,16.6,30.55,North,9,7.0,7.0,70,0.00,,,0.00,Wunderground v.1.15,2013-12-10 15:20:00,
2013-12-10 09:25:00,25.2,16.8,30.54,NNW,342,7.0,10.0,70,0.00,,,0.00,Wunderground v.1.15,2013-12-10 15:25:00,
2013-12-10 09:30:00,25.2,16.8,30.54,NNW,331,7.0,11.0,70,0.00,,,0.00,Wunderground v.1.15,2013-12-10 15:30:00,
2013-12-10 09:40:00,25.5,17.1,30.54,NNW,340,8.0,12.0,70,0.00,,,0.00,Wunderground v.1.15,2013-12-10 15:40:00,
2013-12-10 09:45:00,25.6,17.2,30.55,NNW,344,9.0,12.0,70,0.00,,,0.00,Wunderground v.1.15,2013-12-10 15:45:00,
2013-12-10 09:50:00,25.8,17.0,30.55,NNW,333,9.0,9.0,69,0.00,,,0.00,Wunderground v.1.15,2013-12-10 15:50:00,
2013-12-10 09:55:00,26.0,17.2,30.54,NNW,337,8.0,9.0,69,0.00,,,0.00,Wunderground v.1.15,2013-12-10 15:55:00,
2013-12-10 10:00:00,26.5,17.7,30.55,North,9,7.0,7.0,69,0.00,,,0.00,Wunderground v.1.15,2013-12-10 16:00:00,
2013-12-10 10:10:00,27.0,17.5,30.55,NNW,336,7.0,8.0,67,0.00,,,0.00,Wunderground v.1.15,2013-12-10 16:10:00,
2013-12-10 10:15:00,26.9,17.4,30.55,NNW,348,8.0,8.0,67,0.00,,,0.00,Wunderground v.1.15,2013-12-10 16:15:00,
2013-12-10 10:25:00,27.6,17.7,30.55,NNW,347,7.0,8.0,66,0.00,,,0.00,Wunderground v.1.15,2013-12-10 16:25:00,
2013-12-10 10:30:00,28.1,18.2,30.54,North,355,6.0,9.0,66,0.00,,,0.00,Wunderground v.1.15,2013-12-10 16:30:00,
2013-12-10 10:35:00,28.3,18.0,30.55,NNW,331,7.0,9.0,65,0.00,,,0.00,Wunderground v.1.15,2013-12-10 16:35:00,
2013-12-10 10:40:00,28.3,18.0,30.55,NNW,331,8.0,8.0,65,0.00,,,0.00,Wunderground v.1.15,2013-12-10 16:40:00,
2013-12-10 10:50:00,29.2,18.5,30.55,NNW,345,5.0,6.0,64,0.00,,,0.00,Wunderground v.1.15,2013-12-10 16:50:00,
2013-12-10 10:55:00,29.4,18.3,30.54,NNW,340,5.0,6.0,63,0.00,,,0.00,Wunderground v.1.15,2013-12-10 16:55:00,
2013-12-10 11:00:00,29.8,18.7,30.54,NNW,333,5.0,6.0,63,0.00,,,0.00,Wunderground v.1.15,2013-12-10 17:00:00,
2013-12-10 11:10:00,29.8,18.4,30.54,NNW,333,5.0,5.0,62,0.00,,,0.00,Wunderground v.1.15,2013-12-10 17:10:00,
2013-12-10 11:15:00,30.3,18.8,30.54,NNW,333,3.0,5.0,62,0.00,,,0.00,Wunderground v.1.15,2013-12-10 17:15:00,
2013-12-10 11:20:00,30.6,19.1,30.54,NNW,333,1.0,1.0,62,0.00,,,0.00,Wunderground v.1.15,2013-12-10 17:20:00,
2013-12-10 11:25:00,31.1,19.2,30.54,NNW,332,1.0,6.0,61,0.00,,,0.00,Wunderground v.1.15,2013-12-10 17:25:00,
2013-12-10 11:35:00,31.4,19.5,30.54,NNW,332,1.0,2.0,61,0.00,,,0.00,Wunderground v.1.15,2013-12-10 17:35:00,
2013-12-10 11:40:00,31.8,19.1,30.54,NNW,332,0.0,0.0,59,0.00,,,0.00,Wunderground v.1.15,2013-12-10 17:40:00,
2013-12-10 11:45:00,31.8,18.7,30.53,NNW,332,0.0,0.0,58,0.00,,,0.00,Wunderground v.1.15,2013-12-10 17:45:00,
2013-12-10 11:50:00,31.6,18.5,30.53,NNW,332,0.0,0.0,58,0.00,,,0.00,Wunderground v.1.15,2013-12-10 17:50:00,
2013-12-10 11:55:00,31.7,18.2,30.53,NNW,332,0.0,0.0,57,0.00,,,0.00,Wunderground v.1.15,2013-12-10 17:55:00,
2013-12-10 12:00:00,32.0,18.9,30.52,NNW,332,0.0,0.0,58,0.00,,,0.00,Wunderground v.1.15,2013-12-10 18:00:00,
2013-12-10 12:10:00,32.6,19.0,30.52,NNW,332,0.0,0.0,57,0.00,,,0.00,Wunderground v.1.15,2013-12-10 18:10:00,
2013-12-10 12:20:00,32.5,18.9,30.51,NNW,332,0.0,0.0,57,0.12,,,0.02,Wunderground v.1.15,2013-12-10 18:20:00,
2013-12-10 12:25:00,32.8,19.6,30.50,NNW,332,0.0,0.0,58,0.06,,,0.02,Wunderground v.1.15,2013-12-10 18:25:00,
2013-12-10 12:30:00,33.2,19.6,30.50,NNW,332,0.0,0.0,57,0.05,,,0.03,Wunderground v.1.15,2013-12-10 18:30:00,
2013-12-10 12:35:00,33.2,20.0,30.50,NNW,332,0.0,0.0,58,0.10,,,0.04,Wunderground v.1.15,2013-12-10 18:35:00,
2013-12-10 12:40:00,33.6,20.4,30.49,NNW,332,0.0,0.0,58,0.09,,,0.04,Wunderground v.1.15,2013-12-10 18:40:00,
2013-12-10 12:50:00,33.8,20.2,30.49,NNW,332,0.0,0.0,57,0.04,,,0.05,Wunderground v.1.15,2013-12-10 18:50:00,
2013-12-10 12:55:00,34.0,20.3,30.49,NNW,332,0.0,0.0,57,0.08,,,0.06,Wunderground v.1.15,2013-12-10 18:55:00,
2013-12-10 13:00:00,34.0,19.5,30.48,NNW,332,0.0,0.0,55,0.08,,,0.06,Wunderground v.1.15,2013-12-10 19:00:00,
2013-12-10 13:10:00,34.4,20.3,30.47,NNW,332,0.0,1.0,56,0.04,,,0.06,Wunderground v.1.15,2013-12-10 19:10:00,
2013-12-10 13:15:00,34.9,20.4,30.47,NNW,332,0.0,4.0,55,0.00,,,0.07,Wunderground v.1.15,2013-12-10 19:15:00,
2013-12-10 13:20:00,35.5,20.5,30.46,NNW,332,1.0,1.0,54,0.00,,,0.07,Wunderground v.1.15,2013-12-10 19:20:00,
2013-12-10 13:30:00,35.9,20.4,30.45,NNW,332,0.0,0.0,53,0.04,,,0.08,Wunderground v.1.15,2013-12-10 19:30:00,
2013-12-10 13:35:00,35.9,21.3,30.45,NNW,332,1.0,1.0,55,0.04,,,0.08,Wunderground v.1.15,2013-12-10 19:35:00,
2013-12-10 13:40:00,36.0,20.9,30.44,NNW,333,2.0,5.0,54,0.04,,,0.08,Wunderground v.1.15,2013-12-10 19:40:00,
2013-12-10 13:45:00,36.5,21.8,30.44,NNW,333,2.0,5.0,55,0.04,,,0.08,Wunderground v.1.15,2013-12-10 19:45:00,
2013-12-10 13:50:00,36.4,21.3,30.44,NNW,333,3.0,3.0,54,0.00,,,0.08,Wunderground v.1.15,2013-12-10 19:50:00,
2013-12-10 14:05:00,37.1,22.0,30.44,NNW,333,0.0,0.0,54,0.00,,,0.08,Wunderground v.1.15,2013-12-10 20:05:00,
2013-12-10 14:10:00,37.1,21.5,30.44,NNW,333,0.0,0.0,53,0.00,,,0.09,Wunderground v.1.15,2013-12-10 20:10:00,
2013-12-10 14:15:00,37.6,22.4,30.44,NNW,333,0.0,1.0,54,0.00,,,0.09,Wunderground v.1.15,2013-12-10 20:15:00,
2013-12-10 14:20:00,37.8,21.7,30.43,NNW,333,0.0,0.0,52,0.00,,,0.09,Wunderground v.1.15,2013-12-10 20:20:00,
2013-12-10 14:30:00,37.6,21.5,30.43,NNW,333,0.0,0.0,52,0.05,,,0.10,Wunderground v.1.15,2013-12-10 20:30:00,
2013-12-10 14:35:00,38.2,21.6,30.43,NNW,333,0.0,0.0,51,0.05,,,0.10,Wunderground v.1.15,2013-12-10 20:35:00,
2013-12-10 14:40:00,38.3,22.6,30.42,NNW,333,0.0,0.0,53,0.05,,,0.11,Wunderground v.1.15,2013-12-10 20:40:00,
2013-12-10 14:45:00,38.4,21.4,30.42,NNW,333,0.0,0.0,50,0.09,,,0.12,Wunderground v.1.15,2013-12-10 20:45:00,
2013-12-10 14:55:00,38.4,22.3,30.42,NNW,333,0.0,0.0,52,0.05,,,0.12,Wunderground v.1.15,2013-12-10 20:55:00,
2013-12-10 15:00:00,39.0,22.4,30.42,NNW,331,1.0,1.0,51,0.04,,,0.13,Wunderground v.1.15,2013-12-10 21:00:00,
2013-12-10 15:10:00,39.1,22.5,30.41,NNW,331,0.0,0.0,51,0.08,,,0.14,Wunderground v.1.15,2013-12-10 21:10:00,
2013-12-10 15:15:00,39.5,23.3,30.41,NNW,331,0.0,5.0,52,0.05,,,0.14,Wunderground v.1.15,2013-12-10 21:15:00,
2013-12-10 15:20:00,39.3,22.2,30.41,NNW,331,0.0,0.0,50,0.04,,,0.15,Wunderground v.1.15,2013-12-10 21:20:00,
2013-12-10 15:25:00,39.2,22.1,30.41,NNW,331,0.0,0.0,50,0.04,,,0.15,Wunderground v.1.15,2013-12-10 21:25:00,
2013-12-10 15:30:00,39.4,22.3,30.41,NNW,331,0.0,0.0,50,0.07,,,0.16,Wunderground v.1.15,2013-12-10 21:30:00,
2013-12-10 15:40:00,39.6,22.9,30.41,NNW,330,0.0,2.0,51,0.04,,,0.16,Wunderground v.1.15,2013-12-10 21:40:00,
2013-12-10 15:45:00,39.4,22.8,30.41,NW,324,1.0,5.0,51,0.04,,,0.17,Wunderground v.1.15,2013-12-10 21:45:00,
2013-12-10 15:50:00,38.8,22.2,30.40,NW,324,1.0,1.0,51,0.04,,,0.17,Wunderground v.1.15,2013-12-10 21:50:00,
2013-12-10 15:55:00,39.2,22.1,30.40,NW,324,0.0,1.0,50,0.07,,,0.18,Wunderground v.1.15,2013-12-10 21:55:00,
2013-12-10 16:05:00,39.7,23.0,30.40,NW,322,0.0,0.0,51,0.05,,,0.18,Wunderground v.1.15,2013-12-10 22:05:00,
2013-12-10 16:10:00,38.9,21.8,30.39,NW,322,0.0,0.0,50,0.04,,,0.18,Wunderground v.1.15,2013-12-10 22:10:00,
2013-12-10 16:15:00,38.6,22.0,30.40,NW,322,0.0,0.0,51,0.00,,,0.19,Wunderground v.1.15,2013-12-10 22:15:00,
2013-12-10 16:20:00,39.0,22.4,30.40,NW,322,0.0,0.0,51,0.00,,,0.19,Wunderground v.1.15,2013-12-10 22:20:00,
2013-12-10 16:25:00,38.7,22.1,30.40,NW,321,0.0,0.0,51,0.00,,,0.19,Wunderground v.1.15,2013-12-10 22:25:00,
2013-12-10 16:35:00,38.4,22.7,30.40,NW,321,0.0,0.0,53,0.05,,,0.20,Wunderground v.1.15,2013-12-10 22:35:00,
2013-12-10 16:40:00,38.2,21.6,30.39,NW,321,0.0,0.0,51,0.04,,,0.20,Wunderground v.1.15,2013-12-10 22:40:00,
2013-12-10 16:45:00,38.1,21.1,30.39,NW,321,0.0,0.0,50,0.00,,,0.20,Wunderground v.1.15,2013-12-10 22:45:00,
2013-12-10 16:50:00,37.8,21.3,30.39,NW,321,0.0,0.0,51,0.00,,,0.20,Wunderground v.1.15,2013-12-10 22:50:00,
2013-12-10 16:55:00,37.5,21.0,30.39,NW,321,0.0,0.0,51,0.00,,,0.20,Wunderground v.1.15,2013-12-10 22:55:00,
2013-12-10 17:00:00,37.1,21.1,30.39,NW,321,0.0,0.0,52,0.00,,,0.20,Wunderground v.1.15,2013-12-10 23:00:00,
2013-12-10 17:10:00,36.4,21.3,30.39,NW,321,0.0,0.0,54,0.00,,,0.21,Wunderground v.1.15,2013-12-10 23:10:00,
2013-12-10 17:15:00,36.1,21.5,30.39,NW,321,0.0,0.0,55,0.00,,,0.21,Wunderground v.1.15,2013-12-10 23:15:00,
2013-12-10 17:20:00,35.8,21.6,30.39,NW,321,0.0,0.0,56,0.00,,,0.21,Wunderground v.1.15,2013-12-10 23:20:00,
2013-12-10 17:25:00,35.5,21.8,30.39,NW,321,0.0,0.0,57,0.00,,,0.21,Wunderground v.1.15,2013-12-10 23:25:00,
2013-12-10 17:30:00,35.1,21.8,30.39,NW,321,0.0,0.0,58,0.00,,,0.21,Wunderground v.1.15,2013-12-10 23:30:00,
2013-12-10 17:35:00,34.8,21.9,30.39,NW,321,0.0,0.0,59,0.00,,,0.22,Wunderground v.1.15,2013-12-10 23:35:00,
2013-12-10 17:45:00,34.0,22.0,30.39,NW,321,0.0,0.0,61,0.00,,,0.22,Wunderground v.1.15,2013-12-10 23:45:00,
2013-12-10 17:50:00,33.6,22.3,30.39,NW,321,0.0,0.0,63,0.00,,,0.22,Wunderground v.1.15,2013-12-10 23:50:00,
2013-12-10 17:55:00,33.2,22.3,30.39,NW,321,0.0,0.0,64,0.00,,,0.22,Wunderground v.1.15,2013-12-10 23:55:00,
2013-12-10 18:00:00,32.9,22.4,30.38,NW,321,0.0,0.0,65,0.00,,,0.22,Wunderground v.1.15,2013-12-11 00:00:00,
2013-12-10 18:10:00,32.2,22.1,30.38,NW,321,0.0,0.0,66,0.00,,,0.22,Wunderground v.1.15,2013-12-11 00:10:00,
2013-12-10 18:15:00,31.9,22.5,30.38,NW,321,0.0,0.0,68,0.00,,,0.22,Wunderground v.1.15,2013-12-11 00:15:00,
2013-12-10 18:25:00,31.4,22.7,30.37,NW,321,0.0,0.0,70,0.00,,,0.22,Wunderground v.1.15,2013-12-11 00:25:00,
2013-12-10 18:30:00,31.1,22.8,30.37,NW,321,0.0,0.0,71,0.00,,,0.22,Wunderground v.1.15,2013-12-11 00:30:00,
2013-12-10 18:35:00,30.8,22.8,30.37,NW,321,0.0,0.0,72,0.00,,,0.22,Wunderground v.1.15,2013-12-11 00:35:00,
2013-12-10 18:40:00,30.6,22.6,30.37,NW,321,0.0,0.0,72,0.00,,,0.22,Wunderground v.1.15,2013-12-11 00:40:00,
2013-12-10 18:45:00,30.4,22.8,30.38,NW,321,0.0,0.0,73,0.00,,,0.22,Wunderground v.1.15,2013-12-11 00:45:00,
2013-12-10 18:55:00,30.1,22.8,30.39,NW,321,0.0,0.0,74,0.00,,,0.22,Wunderground v.1.15,2013-12-11 00:55:00,
2013-12-10 19:00:00,29.9,22.9,30.38,NW,321,0.0,0.0,75,0.00,,,0.22,Wunderground v.1.15,2013-12-11 01:00:00,
2013-12-10 19:10:00,29.6,22.6,30.38,NW,321,0.0,0.0,75,0.00,,,0.22,Wunderground v.1.15,2013-12-11 01:10:00,
2013-12-10 19:15:00,29.4,22.8,30.38,NW,321,0.0,0.0,76,0.00,,,0.22,Wunderground v.1.15,2013-12-11 01:15:00,
2013-12-10 19:20:00,29.2,22.6,30.38,NW,321,0.0,0.0,76,0.00,,,0.22,Wunderground v.1.15,2013-12-11 01:20:00,
2013-12-10 19:25:00,29.0,22.7,30.38,NW,321,0.0,0.0,77,0.00,,,0.22,Wunderground v.1.15,2013-12-11 01:25:00,
2013-12-10 19:35:00,28.6,22.6,30.38,NW,321,0.0,0.0,78,0.00,,,0.22,Wunderground v.1.15,2013-12-11 01:35:00,
2013-12-10 19:40:00,28.5,22.8,30.38,NW,321,0.0,0.0,79,0.00,,,0.22,Wunderground v.1.15,2013-12-11 01:40:00,
2013-12-10 19:45:00,28.4,22.7,30.38,NW,321,0.0,0.0,79,0.00,,,0.22,Wunderground v.1.15,2013-12-11 01:45:00,
2013-12-10 19:50:00,28.2,22.8,30.38,NW,321,0.0,0.0,80,0.00,,,0.22,Wunderground v.1.15,2013-12-11 01:50:00,
2013-12-10 20:00:00,28.0,22.6,30.38,NW,321,0.0,0.0,80,0.00,,,0.22,Wunderground v.1.15,2013-12-11 02:00:00,
2013-12-10 20:10:00,27.7,22.6,30.38,NW,321,0.0,0.0,81,0.00,,,0.22,Wunderground v.1.15,2013-12-11 02:10:00,
2013-12-10 20:15:00,27.5,22.4,30.38,NW,321,0.0,0.0,81,0.00,,,0.22,Wunderground v.1.15,2013-12-11 02:15:00,
2013-12-10 20:20:00,27.4,22.3,30.38,NW,321,0.0,0.0,81,0.00,,,0.22,Wunderground v.1.15,2013-12-11 02:20:00,
2013-12-10 20:25:00,27.4,22.6,30.38,NW,321,0.0,0.0,82,0.00,,,0.22,Wunderground v.1.15,2013-12-11 02:25:00,
2013-12-10 20:30:00,27.4,22.6,30.38,NW,321,0.0,0.0,82,0.00,,,0.22,Wunderground v.1.15,2013-12-11 02:30:00,
2013-12-10 20:35:00,27.3,22.5,30.38,NW,321,0.0,0.0,82,0.00,,,0.22,Wunderground v.1.15,2013-12-11 02:35:00,
2013-12-10 20:45:00,27.2,22.7,30.38,NW,321,0.0,0.0,83,0.00,,,0.22,Wunderground v.1.15,2013-12-11 02:45:00,
2013-12-10 20:50:00,27.1,22.6,30.38,NW,321,0.0,0.0,83,0.00,,,0.22,Wunderground v.1.15,2013-12-11 02:50:00,
2013-12-10 20:55:00,27.0,22.5,30.38,NW,321,0.0,0.0,83,0.00,,,0.22,Wunderground v.1.15,2013-12-11 02:55:00,
2013-12-10 21:00:00,27.0,22.8,30.38,NW,321,0.0,0.0,84,0.00,,,0.22,Wunderground v.1.15,2013-12-11 03:00:00,
2013-12-10 21:10:00,27.1,22.9,30.37,NW,321,0.0,0.0,84,0.00,,,0.22,Wunderground v.1.15,2013-12-11 03:10:00,
2013-12-10 21:15:00,27.0,22.8,30.38,NW,321,0.0,0.0,84,0.00,,,0.22,Wunderground v.1.15,2013-12-11 03:15:00,
2013-12-10 21:25:00,26.7,22.5,30.38,NW,321,0.0,0.0,84,0.00,,,0.22,Wunderground v.1.15,2013-12-11 03:25:00,
2013-12-10 21:30:00,26.7,22.8,30.38,NW,321,0.0,0.0,85,0.00,,,0.22,Wunderground v.1.15,2013-12-11 03:30:00,
2013-12-10 21:35:00,26.9,23.3,30.38,NW,321,0.0,0.0,86,0.00,,,0.22,Wunderground v.1.15,2013-12-11 03:35:00,
2013-12-10 21:40:00,27.0,23.4,30.38,NW,321,0.0,0.0,86,0.00,,,0.22,Wunderground v.1.15,2013-12-11 03:40:00,
2013-12-10 21:45:00,27.1,23.5,30.37,NW,321,0.0,0.0,86,0.00,,,0.22,Wunderground v.1.15,2013-12-11 03:45:00,
2013-12-10 21:55:00,27.2,23.6,30.37,NW,321,0.0,0.0,86,0.00,,,0.22,Wunderground v.1.15,2013-12-11 03:55:00,
2013-12-10 22:00:00,27.2,23.3,30.37,NW,321,0.0,0.0,85,0.00,,,0.22,Wunderground v.1.15,2013-12-11 04:00:00,
2013-12-10 22:10:00,27.3,23.4,30.37,NW,321,0.0,0.0,85,0.00,,,0.22,Wunderground v.1.15,2013-12-11 04:10:00,
2013-12-10 22:15:00,27.3,23.4,30.37,NW,321,0.0,0.0,85,0.00,,,0.22,Wunderground v.1.15,2013-12-11 04:15:00,
2013-12-10 22:20:00,27.3,23.4,30.37,NW,321,0.0,0.0,85,0.00,,,0.22,Wunderground v.1.15,2013-12-11 04:20:00,
2013-12-10 22:25:00,27.2,23.3,30.37,NW,321,0.0,0.0,85,0.00,,,0.22,Wunderground v.1.15,2013-12-11 04:25:00,
2013-12-10 22:35:00,27.2,23.3,30.38,NW,320,0.0,0.0,85,0.00,,,0.22,Wunderground v.1.15,2013-12-11 04:35:00,
2013-12-10 22:40:00,27.3,23.4,30.38,NW,319,0.0,0.0,85,0.00,,,0.22,Wunderground v.1.15,2013-12-11 04:40:00,
2013-12-10 22:45:00,27.4,23.5,30.38,NW,315,0.0,0.0,85,0.00,,,0.22,Wunderground v.1.15,2013-12-11 04:45:00,
2013-12-10 22:50:00,27.6,23.4,30.38,NW,307,1.0,1.0,84,0.00,,,0.22,Wunderground v.1.15,2013-12-11 04:50:00,
2013-12-10 22:55:00,27.8,23.6,30.38,WNW,282,2.0,2.0,84,0.00,,,0.22,Wunderground v.1.15,2013-12-11 04:55:00,
2013-12-10 23:00:00,28.1,23.9,30.38,WSW,257,2.0,2.0,84,0.00,,,0.22,Wunderground v.1.15,2013-12-11 05:00:00,
2013-12-10 23:05:00,28.2,23.7,30.38,WSW,256,1.0,2.0,83,0.00,,,0.22,Wunderground v.1.15,2013-12-11 05:05:00,
2013-12-10 23:10:00,28.3,23.8,30.38,WSW,253,0.0,0.0,83,0.00,,,0.22,Wunderground v.1.15,2013-12-11 05:10:00,
2013-12-10 23:20:00,28.4,23.6,30.38,WSW,247,0.0,2.0,82,0.00,,,0.22,Wunderground v.1.15,2013-12-11 05:20:00,
2013-12-10 23:25:00,28.4,23.6,30.38,WSW,244,0.0,2.0,82,0.00,,,0.22,Wunderground v.1.15,2013-12-11 05:25:00,
2013-12-10 23:30:00,28.4,23.6,30.37,WSW,240,0.0,0.0,82,0.00,,,0.22,Wunderground v.1.15,2013-12-11 05:30:00,
2013-12-10 23:35:00,28.4,23.6,30.37,SW,230,1.0,1.0,82,0.00,,,0.22,Wunderground v.1.15,2013-12-11 05:35:00,
2013-12-10 23:40:00,28.4,23.6,30.36,SW,223,1.0,1.0,82,0.00,,,0.22,Wunderground v.1.15,2013-12-11 05:40:00,
2013-12-10 23:45:00,28.4,23.6,30.36,SW,221,1.0,1.0,82,0.00,,,0.22,Wunderground v.1.15,2013-12-11 05:45:00,
2013-12-10 23:50:00,28.4,23.6,30.36,SW,221,0.0,0.0,82,0.00,,,0.22,Wunderground v.1.15,2013-12-11 05:50:00,
2013-12-10 23:55:00,28.4,23.6,30.37,SW,221,0.0,0.0,82,0.00,,,0.22,Wunderground v.1.15,2013-12-11 05:55:00,